Fort Stockton, TX

12:53 PM CDT on May 05, 2015 (GMT -0500)
Pecos Municipal | | Change Station
CLOSE
Current Station
Airport
Location: Pecos,
Elevation: 2612 ft
Nearby Weather Stations

Elev 2612 ft 31.38 °N, 103.51 °W | Updated 18 minutes ago

Clear
Clear
80 °F
Feels Like 80 °F
N
14
Wind Variable Wind from West
Gusts 20 mph

Today
High -- | Low -- °F
--% Chance of Precip.
Yesterday
High -- | Low -- °F
Precip. -- in
7:03 AM 8:32 PM
Full, 97% visible
Pressure 29.91 in
Visibility 10.0 miles
Clouds Clear
Dew Point 48 °F
Humidity 33%
Rainfall 0.00 in
Snow Depth Not available.
UV 11 out of 12
Pollen 6.70 out of 12
Air Quality Not available.
Flu Activity Sporadic
METAR KPEQ 051735Z AUTO 26012G17KT 10SM CLR 26/09 A2991 RMK AO2 T02640090

More Conditions Fewer Conditions

Pressure 29.91 in
Visibility 10.0 miles
Clouds Clear
Dew Point 48 °F
Humidity 33%
Rainfall 0.00 in
Snow Depth Not available.
UV 11 out of 12
Pollen 6.70 out of 12
Air Quality Not available.
Flu Activity Sporadic
METAR KPEQ 051735Z AUTO 26012G17KT 10SM CLR 26/09 A2991 RMK AO2 T02640090

More Conditions Fewer Conditions

10-Day Weather Forecast

Almanac

Astronomy

May. 05, 2015 Rise Set
Actual Time
Civil Twilight
Nautical Twilight
Astronomical Twilight
Moon
Length of Visible Light
Length of Day
Tomorrow will be .
, % of the Moon is Illuminated

Today's Extremes

State Highs State Lows

Community

WunderPhotos

Upload Photos

1,818,950 photos uploaded!

WunderBlogs® & News

Nearby

Air Quality

  Air Quality AQ Index Pollutant
Not available.

Snow Depth

Station Depth Elevation

Earthquake Activity

City Distance Mag. Time & Date
Minimum magnitude displayed is 2.5.

Coastal Water Temperatures

Place Temperature

Stations

Nearby Weather Stations

Station Location Temp. Windchill Dew Point Humidity Wind Precip. Elev Updated Type